Time;durP1;ratioP1;P1;durP2;ratioP2;P2;SDS_P1;SDS_P2;PMS_P1;PMS_P2;Temp;Humidity;BMP_temperature;BMP_pressure;BME280_temperature;BME280_humidity;BME280_pressure;Samples;Min_cycle;Max_cycle;Signal;HPM_P1;HPM_P2
2023/03/21 00:00:15;;;;;;;141.18;43.40;;;;;;;;;;4927017;29;20524;-54
2023/03/21 00:02:42;;;;;;;173.73;45.80;;;;;;;;;;4919822;29;20060;-54
2023/03/21 00:05:09;;;;;;;130.27;40.17;;;;;;;;;;4920356;29;20040;-54
2023/03/21 00:07:41;;;;;;;141.30;44.83;;;;;;;;;;4923210;29;20453;-53
2023/03/21 00:10:08;;;;;;;197.07;43.33;;;;;;;;;;4921748;29;20458;-54
2023/03/21 00:12:45;;;;;;;129.93;38.75;;;;;;;;;;4923725;29;20052;-52
2023/03/21 00:15:11;;;;;;;121.05;40.53;;;;;;;;;;4920295;29;20062;-52
2023/03/21 00:17:38;;;;;;;133.05;38.90;;;;;;;;;;4919181;29;20525;-51
2023/03/21 00:20:06;;;;;;;122.43;37.40;;;;;;;;;;4923081;29;20090;-53
2023/03/21 00:22:34;;;;;;;157.63;41.25;;;;;;;;;;4923091;29;20044;-52
2023/03/21 00:25:01;;;;;;;148.18;39.13;;;;;;;;;;4923168;29;20521;-65
2023/03/21 00:27:27;;;;;;;128.02;40.28;;;;;;;;;;4915221;29;20043;-67
2023/03/21 00:30:15;;;;;;;156.73;42.50;;;;;;;;;;4920882;29;20040;-66
2023/03/21 00:32:41;;;;;;;100.80;37.47;;;;;;;;;;4920813;29;20139;-66
2023/03/21 00:35:28;;;;;;;142.63;40.00;;;;;;;;;;4917355;29;20169;-68
2023/03/21 00:38:15;;;;;;;116.72;39.97;;;;;;;;;;4917736;29;20509;-69
2023/03/21 00:40:41;;;;;;;165.13;40.95;;;;;;;;;;4921687;29;20046;-69
2023/03/21 00:43:16;;;;;;;118.45;37.97;;;;;;;;;;4920688;29;20083;-69
2023/03/21 00:45:43;;;;;;;141.93;39.35;;;;;;;;;;4920950;29;20087;-68
2023/03/21 00:48:09;;;;;;;114.65;38.90;;;;;;;;;;4923220;29;20048;-68
2023/03/21 00:50:37;;;;;;;106.22;37.28;;;;;;;;;;4921297;29;20054;-69
2023/03/21 00:53:05;;;;;;;136.45;41.03;;;;;;;;;;4919872;29;20501;-68
2023/03/21 00:55:32;;;;;;;140.27;40.17;;;;;;;;;;4921006;29;20138;-66
2023/03/21 00:57:58;;;;;;;121.47;38.47;;;;;;;;;;4922114;29;20047;-66
2023/03/21 01:00:28;;;;;;;125.68;38.47;;;;;;;;;;4922231;29;20104;-69
2023/03/21 01:02:57;;;;;;;126.28;41.55;;;;;;;;;;4920954;29;20043;-69
2023/03/21 01:06:03;;;;;;;155.30;40.15;;;;;;;;;;4933869;29;20056;-68
2023/03/21 01:08:31;;;;;;;113.30;37.85;;;;;;;;;;4923866;29;20126;-66
2023/03/21 01:11:17;;;;;;;151.20;38.65;;;;;;;;;;4914957;29;20052;-66
2023/03/21 01:13:43;;;;;;;125.55;39.90;;;;;;;;;;4921945;29;20054;-66
2023/03/21 01:16:22;;;;;;;163.38;39.78;;;;;;;;;;4919737;29;20040;-66
2023/03/21 01:18:48;;;;;;;122.25;36.72;;;;;;;;;;4928749;29;20087;-66
2023/03/21 01:21:15;;;;;;;130.25;40.40;;;;;;;;;;4924761;29;20047;-66
2023/03/21 01:23:42;;;;;;;161.48;41.20;;;;;;;;;;4918627;29;20048;-66
2023/03/21 01:26:09;;;;;;;123.43;38.25;;;;;;;;;;4919225;29;20040;-66
2023/03/21 01:28:36;;;;;;;114.57;39.00;;;;;;;;;;4920325;29;20048;-68
2023/03/21 01:31:04;;;;;;;191.50;44.20;;;;;;;;;;4935157;29;20043;-68
2023/03/21 01:33:31;;;;;;;239.15;45.53;;;;;;;;;;4922093;29;20170;-56
2023/03/21 01:35:58;;;;;;;138.75;39.00;;;;;;;;;;4917900;29;20095;-55
2023/03/21 01:38:38;;;;;;;156.40;39.50;;;;;;;;;;4914300;29;20062;-56
2023/03/21 01:41:05;;;;;;;117.75;36.45;;;;;;;;;;4925862;29;20050;-55
2023/03/21 01:43:44;;;;;;;163.30;38.42;;;;;;;;;;4920676;29;20502;-55
2023/03/21 01:46:26;;;;;;;125.30;36.58;;;;;;;;;;4922067;29;20091;-55
2023/03/21 01:49:04;;;;;;;159.30;37.22;;;;;;;;;;4919902;29;27255;-54
2023/03/21 01:51:33;;;;;;;120.07;35.85;;;;;;;;;;4917662;29;20048;-54
2023/03/21 01:54:01;;;;;;;159.90;37.50;;;;;;;;;;4920025;29;20409;-56
2023/03/21 01:56:31;;;;;;;105.85;33.33;;;;;;;;;;4918812;29;20138;-56
2023/03/21 01:59:07;;;;;;;105.50;34.13;;;;;;;;;;4919884;29;20066;-52
2023/03/21 02:02:06;;;;;;;109.50;33.63;;;;;;;;;;4918226;29;20075;-56
2023/03/21 02:04:37;;;;;;;155.95;39.33;;;;;;;;;;4935953;29;20059;-56
2023/03/21 02:07:17;;;;;;;159.25;37.83;;;;;;;;;;4920635;29;20047;-54
2023/03/21 02:09:52;;;;;;;139.00;35.25;;;;;;;;;;4915013;29;20040;-54
2023/03/21 02:12:21;;;;;;;102.57;33.97;;;;;;;;;;4910907;29;20044;-56
2023/03/21 02:14:49;;;;;;;133.80;36.35;;;;;;;;;;4917764;29;20059;-55
2023/03/21 02:17:34;;;;;;;162.13;37.92;;;;;;;;;;4933418;29;20052;-56
2023/03/21 02:20:07;;;;;;;127.82;36.25;;;;;;;;;;4916439;29;20510;-55
2023/03/21 02:22:42;;;;;;;157.40;36.03;;;;;;;;;;4909820;29;20500;-54
2023/03/21 02:25:28;;;;;;;134.35;35.90;;;;;;;;;;4918660;29;20072;-54
2023/03/21 02:28:13;;;;;;;163.85;34.13;;;;;;;;;;4919918;29;20047;-55
2023/03/21 02:30:53;;;;;;;108.30;33.67;;;;;;;;;;4922624;29;20043;-55
2023/03/21 02:33:38;;;;;;;121.75;35.47;;;;;;;;;;4923474;29;20052;-53
2023/03/21 02:36:11;;;;;;;110.00;33.90;;;;;;;;;;4920762;29;20048;-55
2023/03/21 02:38:53;;;;;;;104.30;33.35;;;;;;;;;;4929865;29;20579;-55
2023/03/21 02:41:38;;;;;;;100.72;31.55;;;;;;;;;;4927463;29;20048;-55
2023/03/21 02:44:23;;;;;;;112.45;32.05;;;;;;;;;;4922204;29;20068;-56
2023/03/21 02:46:53;;;;;;;164.00;34.97;;;;;;;;;;4920339;29;20446;-55
2023/03/21 02:49:41;;;;;;;130.07;33.38;;;;;;;;;;4929395;29;20420;-54
2023/03/21 02:52:13;;;;;;;171.93;36.42;;;;;;;;;;4922661;29;20040;-53
2023/03/21 02:54:55;;;;;;;126.45;32.67;;;;;;;;;;4923742;29;20048;-55
2023/03/21 02:57:25;;;;;;;148.73;34.00;;;;;;;;;;4937030;29;20052;-55
2023/03/21 03:00:10;;;;;;;122.38;33.45;;;;;;;;;;4919457;29;20398;-52
2023/03/21 03:02:42;;;;;;;129.18;32.35;;;;;;;;;;4925464;29;20058;-55
2023/03/21 03:05:17;;;;;;;127.93;34.40;;;;;;;;;;4918696;29;20150;-54
2023/03/21 03:07:49;;;;;;;144.05;33.95;;;;;;;;;;4913310;29;20051;-55
2023/03/21 03:10:19;;;;;;;120.18;33.20;;;;;;;;;;4911039;29;20050;-56
2023/03/21 03:13:04;;;;;;;103.90;32.10;;;;;;;;;;4920533;29;20047;-56
2023/03/21 03:15:37;;;;;;;118.93;33.85;;;;;;;;;;4938041;29;20060;-55
2023/03/21 03:18:25;;;;;;;121.30;32.67;;;;;;;;;;4940712;29;20052;-56
2023/03/21 03:21:18;;;;;;;132.07;33.63;;;;;;;;;;4917018;29;20063;-55
2023/03/21 03:23:44;;;;;;;108.40;31.67;;;;;;;;;;4852297;29;20130;-53
2023/03/21 03:26:16;;;;;;;114.18;33.08;;;;;;;;;;4849883;29;20148;-56
2023/03/21 03:28:47;;;;;;;125.93;30.67;;;;;;;;;;4847430;29;20065;-68
2023/03/21 03:31:20;;;;;;;124.72;31.13;;;;;;;;;;4835338;29;20054;-68
2023/03/21 03:33:54;;;;;;;106.05;32.00;;;;;;;;;;4850366;29;20050;-69
2023/03/21 03:36:23;;;;;;;107.50;31.88;;;;;;;;;;4835204;29;20049;-68
2023/03/21 03:39:06;;;;;;;100.60;31.98;;;;;;;;;;4849908;29;20084;-69
2023/03/21 03:41:36;;;;;;;138.13;32.88;;;;;;;;;;4850160;29;20050;-69
2023/03/21 03:44:27;;;;;;;91.82;30.98;;;;;;;;;;4833778;29;20049;-69
2023/03/21 03:47:01;;;;;;;95.03;29.88;;;;;;;;;;4833766;29;20038;-68
2023/03/21 03:49:30;;;;;;;117.93;31.52;;;;;;;;;;4832817;29;20168;-69
2023/03/21 03:52:01;;;;;;;157.93;34.08;;;;;;;;;;4847033;29;20070;-68
2023/03/21 03:54:38;;;;;;;106.10;31.77;;;;;;;;;;4835126;29;20058;-69
2023/03/21 03:57:05;;;;;;;136.93;33.72;;;;;;;;;;4849799;29;20141;-69
2023/03/21 03:59:33;;;;;;;123.32;33.10;;;;;;;;;;4854618;29;20591;-69
2023/03/21 04:02:19;;;;;;;104.03;31.00;;;;;;;;;;4925640;29;20138;-69
2023/03/21 04:04:51;;;;;;;118.57;31.40;;;;;;;;;;4919112;29;20048;-68
2023/03/21 04:07:20;;;;;;;109.32;32.58;;;;;;;;;;4919122;29;20401;-68
2023/03/21 04:09:49;;;;;;;149.38;34.88;;;;;;;;;;4932726;29;20052;-67
2023/03/21 04:12:18;;;;;;;106.70;30.73;;;;;;;;;;4919796;29;20044;-68
2023/03/21 04:15:11;;;;;;;138.52;31.45;;;;;;;;;;4921718;29;20139;-67
2023/03/21 04:17:42;;;;;;;106.63;30.25;;;;;;;;;;4921895;29;20052;-67
2023/03/21 04:20:09;;;;;;;93.90;30.30;;;;;;;;;;4921387;29;20658;-67
2023/03/21 04:22:44;;;;;;;102.47;28.20;;;;;;;;;;4924069;29;20050;-67
2023/03/21 04:25:12;;;;;;;131.30;32.03;;;;;;;;;;4924495;29;20135;-67
2023/03/21 04:27:48;;;;;;;125.53;29.25;;;;;;;;;;4916792;29;21006;-67
2023/03/21 04:30:34;;;;;;;94.47;27.98;;;;;;;;;;4916722;29;20079;-55
2023/03/21 04:33:07;;;;;;;133.65;30.23;;;;;;;;;;4920228;29;20048;-52
2023/03/21 04:35:35;;;;;;;117.07;29.23;;;;;;;;;;4918698;29;20052;-54
2023/03/21 04:38:03;;;;;;;102.30;29.45;;;;;;;;;;4922137;29;20044;-55
2023/03/21 04:40:30;;;;;;;116.28;29.13;;;;;;;;;;4921492;29;20039;-55
2023/03/21 04:43:00;;;;;;;135.82;29.90;;;;;;;;;;4920740;29;20048;-52
2023/03/21 04:45:26;;;;;;;101.70;27.83;;;;;;;;;;4934459;29;20110;-55
2023/03/21 04:47:53;;;;;;;124.05;29.05;;;;;;;;;;4919997;29;20739;-53
2023/03/21 04:50:23;;;;;;;104.65;27.55;;;;;;;;;;4920963;29;20059;-52
2023/03/21 04:52:49;;;;;;;95.65;27.63;;;;;;;;;;4916048;29;20072;-54
2023/03/21 04:55:20;;;;;;;116.35;27.75;;;;;;;;;;4919875;29;20148;-54
2023/03/21 04:57:47;;;;;;;97.70;25.60;;;;;;;;;;4921142;29;20280;-55
2023/03/21 05:00:13;;;;;;;141.48;30.08;;;;;;;;;;4938216;29;20054;-53
2023/03/21 05:02:40;;;;;;;94.40;27.95;;;;;;;;;;4922660;29;20086;-55
2023/03/21 05:05:10;;;;;;;122.82;28.27;;;;;;;;;;4921584;29;20040;-55
2023/03/21 05:07:37;;;;;;;143.15;29.40;;;;;;;;;;4919808;29;20079;-54
2023/03/21 05:10:04;;;;;;;111.28;27.60;;;;;;;;;;4924611;29;20048;-55
2023/03/21 05:12:31;;;;;;;75.70;24.45;;;;;;;;;;4935960;29;20517;-53
2023/03/21 05:14:58;;;;;;;113.60;26.67;;;;;;;;;;4918483;29;20119;-53
2023/03/21 05:17:27;;;;;;;82.05;24.67;;;;;;;;;;4921033;29;20151;-54
2023/03/21 05:19:55;;;;;;;78.82;25.17;;;;;;;;;;4925690;29;20048;-56
2023/03/21 05:22:23;;;;;;;144.68;28.02;;;;;;;;;;4928205;29;20509;-53
2023/03/21 05:24:50;;;;;;;75.78;23.17;;;;;;;;;;4916849;29;20087;-53
2023/03/21 05:27:35;;;;;;;80.55;24.63;;;;;;;;;;4924637;29;20452;-55
2023/03/21 05:30:13;;;;;;;116.93;25.98;;;;;;;;;;4933935;29;20135;-56
2023/03/21 05:32:40;;;;;;;97.93;26.58;;;;;;;;;;4918236;29;20056;-55
2023/03/21 05:35:09;;;;;;;119.72;27.33;;;;;;;;;;4919748;29;20036;-54
2023/03/21 05:37:37;;;;;;;123.70;28.25;;;;;;;;;;4918643;29;20564;-55
2023/03/21 05:40:06;;;;;;;114.47;26.45;;;;;;;;;;4919824;29;20044;-54
2023/03/21 05:42:34;;;;;;;123.97;29.70;;;;;;;;;;4916953;29;20052;-67
2023/03/21 05:45:10;;;;;;;113.22;26.52;;;;;;;;;;4917052;29;20513;-67
2023/03/21 05:47:37;;;;;;;141.88;29.13;;;;;;;;;;4916985;29;20044;-67
2023/03/21 05:50:04;;;;;;;80.53;25.88;;;;;;;;;;4922682;29;20074;-66
2023/03/21 05:52:32;;;;;;;90.38;25.73;;;;;;;;;;4920390;29;20581;-68
2023/03/21 05:55:03;;;;;;;139.23;28.60;;;;;;;;;;4920439;29;20044;-66
2023/03/21 05:57:31;;;;;;;107.82;29.17;;;;;;;;;;4923505;29;20043;-67
2023/03/21 06:00:03;;;;;;;;;;;;;;;;;;4920016;29;20043;-68
2023/03/21 06:02:40;;;;;;;83.50;24.58;;;;;;;;;;4922300;29;19927;-68
2023/03/21 06:05:22;;;;;;;78.20;25.05;;;;;;;;;;4920431;29;20072;-67
2023/03/21 06:07:49;;;;;;;115.53;26.75;;;;;;;;;;4922152;29;20104;-67
2023/03/21 06:10:16;;;;;;;89.47;26.15;;;;;;;;;;4940001;29;20050;-67
2023/03/21 06:12:45;;;;;;;85.07;25.65;;;;;;;;;;4921101;29;20040;-67
2023/03/21 06:15:39;;;;;;;104.97;27.88;;;;;;;;;;4923437;29;20638;-67
2023/03/21 06:18:14;;;;;;;110.05;25.58;;;;;;;;;;4923779;29;20523;-67
2023/03/21 06:20:50;;;;;;;73.93;23.92;;;;;;;;;;4922016;29;20055;-68
2023/03/21 06:23:17;;;;;;;93.70;22.42;;;;;;;;;;4922145;29;20055;-68
2023/03/21 06:25:43;;;;;;;79.07;22.02;;;;;;;;;;4924378;29;20040;-68
2023/03/21 06:28:10;;;;;;;98.93;21.90;;;;;;;;;;4922764;29;20043;-67
2023/03/21 06:30:39;;;;;;;90.50;20.98;;;;;;;;;;4921841;29;20051;-67
2023/03/21 06:33:23;;;;;;;70.40;20.50;;;;;;;;;;4922138;29;20060;-68
2023/03/21 06:35:51;;;;;;;76.68;20.35;;;;;;;;;;4928382;29;20048;-67
2023/03/21 06:38:19;;;;;;;77.97;19.58;;;;;;;;;;4925237;29;20040;-68
2023/03/21 06:40:47;;;;;;;63.30;18.75;;;;;;;;;;4921623;29;20058;-67
2023/03/21 06:43:14;;;;;;;115.60;21.77;;;;;;;;;;4924277;29;20048;-67
2023/03/21 06:45:42;;;;;;;87.43;20.35;;;;;;;;;;4921674;29;20079;-67
2023/03/21 06:48:09;;;;;;;68.53;17.98;;;;;;;;;;4923729;29;20517;-51
2023/03/21 06:50:43;;;;;;;127.32;22.63;;;;;;;;;;4916900;29;20048;-54
2023/03/21 06:53:10;;;;;;;91.30;20.90;;;;;;;;;;4920692;29;20055;-54
2023/03/21 06:55:56;;;;;;;109.65;19.30;;;;;;;;;;4925848;29;20055;-55
2023/03/21 06:58:23;;;;;;;75.93;15.95;;;;;;;;;;4935321;29;20071;-56
2023/03/21 07:00:50;;;;;;;66.43;16.88;;;;;;;;;;4937284;29;20465;-54
2023/03/21 07:03:18;;;;;;;90.82;18.73;;;;;;;;;;4901374;29;20115;-54
2023/03/21 07:05:45;;;;;;;81.95;17.50;;;;;;;;;;4920652;29;20052;-52
2023/03/21 07:08:14;;;;;;;78.40;16.45;;;;;;;;;;4922579;29;20140;-53
2023/03/21 07:10:41;;;;;;;98.82;17.85;;;;;;;;;;4920942;29;20047;-55
2023/03/21 07:13:10;;;;;;;105.35;18.45;;;;;;;;;;4923384;29;20625;-51
2023/03/21 07:15:42;;;;;;;90.93;18.42;;;;;;;;;;4920442;29;20639;-53
2023/03/21 07:18:09;;;;;;;121.47;18.23;;;;;;;;;;4922723;29;20044;-54
2023/03/21 07:20:36;;;;;;;95.20;17.50;;;;;;;;;;4918405;29;20075;-55
2023/03/21 07:23:03;;;;;;;68.60;16.35;;;;;;;;;;4923970;29;20058;-53
2023/03/21 07:25:30;;;;;;;125.05;21.33;;;;;;;;;;4921027;29;20051;-51
2023/03/21 07:27:56;;;;;;;108.82;18.98;;;;;;;;;;4920741;29;20137;-55
2023/03/21 07:30:23;;;;;;;73.35;15.93;;;;;;;;;;4921574;29;20044;-54
2023/03/21 07:32:49;;;;;;;95.93;17.75;;;;;;;;;;4925227;29;20048;-55
2023/03/21 07:35:16;;;;;;;69.63;15.82;;;;;;;;;;4920319;29;20155;-54
2023/03/21 07:37:43;;;;;;;88.05;17.20;;;;;;;;;;4918240;29;20054;-55
2023/03/21 07:40:13;;;;;;;118.65;18.70;;;;;;;;;;4921746;29;20048;-54
2023/03/21 07:42:40;;;;;;;68.00;15.82;;;;;;;;;;4924842;29;20047;-53
2023/03/21 07:45:09;;;;;;;69.55;15.80;;;;;;;;;;4920685;29;20040;-52
2023/03/21 07:47:35;;;;;;;117.50;17.30;;;;;;;;;;4919864;29;20462;-54
2023/03/21 07:50:03;;;;;;;85.93;17.10;;;;;;;;;;4919982;29;20036;-52
2023/03/21 07:52:30;;;;;;;83.18;16.63;;;;;;;;;;4922362;29;20039;-54
2023/03/21 07:54:57;;;;;;;99.50;17.42;;;;;;;;;;4923277;29;20051;-52
2023/03/21 07:57:23;;;;;;;54.58;15.85;;;;;;;;;;4922924;29;20560;-55
2023/03/21 07:59:49;;;;;;;73.50;17.17;;;;;;;;;;4922856;29;20048;-54
2023/03/21 08:02:17;;;;;;;105.55;19.08;;;;;;;;;;4934918;28;20067;-54
2023/03/21 08:04:44;;;;;;;67.60;16.10;;;;;;;;;;4918844;29;20764;-54
2023/03/21 08:07:10;;;;;;;116.90;18.85;;;;;;;;;;4919760;29;20079;-68
2023/03/21 08:09:37;;;;;;;129.02;21.10;;;;;;;;;;4914532;29;20086;-67
2023/03/21 08:12:04;;;;;;;99.18;17.45;;;;;;;;;;4919500;29;20075;-67
2023/03/21 08:14:30;;;;;;;51.22;15.02;;;;;;;;;;4921166;29;20114;-68
2023/03/21 08:16:59;;;;;;;89.80;17.55;;;;;;;;;;4922648;29;20071;-67
2023/03/21 08:19:26;;;;;;;78.68;16.50;;;;;;;;;;4919346;29;20047;-67
2023/03/21 08:21:53;;;;;;;44.03;14.75;;;;;;;;;;4924069;29;20044;-67
2023/03/21 08:24:19;;;;;;;106.13;18.65;;;;;;;;;;4921027;29;20044;-67
2023/03/21 08:26:46;;;;;;;48.20;15.88;;;;;;;;;;4922303;29;20044;-67
2023/03/21 08:29:12;;;;;;;67.38;15.43;;;;;;;;;;4922849;29;20050;-67
2023/03/21 08:31:40;;;;;;;106.38;16.67;;;;;;;;;;4920740;29;20054;-67
2023/03/21 08:34:07;;;;;;;90.03;14.95;;;;;;;;;;4921852;29;20067;-67
2023/03/21 08:36:35;;;;;;;52.92;13.43;;;;;;;;;;4916849;29;20047;-68
2023/03/21 08:39:05;;;;;;;79.30;13.75;;;;;;;;;;4918784;29;20043;-67
2023/03/21 08:41:33;;;;;;;65.72;12.98;;;;;;;;;;4921273;29;20454;-67
2023/03/21 08:43:59;;;;;;;48.28;12.98;;;;;;;;;;4919998;29;20462;-67
2023/03/21 08:46:26;;;;;;;92.88;14.32;;;;;;;;;;4922135;29;20044;-67
2023/03/21 08:48:53;;;;;;;50.80;13.25;;;;;;;;;;4921257;29;20433;-67
2023/03/21 08:51:20;;;;;;;62.35;13.07;;;;;;;;;;4919034;29;20047;-66
2023/03/21 08:53:49;;;;;;;109.20;15.25;;;;;;;;;;4918373;29;20038;-66
2023/03/21 08:56:16;;;;;;;56.88;11.27;;;;;;;;;;4915949;29;20504;-66
2023/03/21 08:58:43;;;;;;;55.80;10.85;;;;;;;;;;4920558;29;20048;-66
2023/03/21 09:01:14;;;;;;;150.65;15.82;;;;;;;;;;4915349;29;20044;-66
2023/03/21 09:03:41;;;;;;;65.72;11.20;;;;;;;;;;4921396;29;20131;-66
2023/03/21 09:06:10;;;;;;;60.92;9.80;;;;;;;;;;4925444;29;20075;-67
2023/03/21 09:08:36;;;;;;;129.18;13.45;;;;;;;;;;4913809;29;20044;-52
2023/03/21 09:11:03;;;;;;;46.50;8.85;;;;;;;;;;4918730;29;20066;-52
2023/03/21 09:13:30;;;;;;;59.17;9.68;;;;;;;;;;4921895;29;20044;-53
2023/03/21 09:16:00;;;;;;;110.82;13.02;;;;;;;;;;4921374;29;20041;-54
2023/03/21 09:18:44;;;;;;;21.88;7.30;;;;;;;;;;4921323;29;20086;-53
2023/03/21 09:21:12;;;;;;;;;;;;;;;;;;4919422;29;20052;-54
2023/03/21 09:23:40;;;;;;;71.05;10.00;;;;;;;;;;4922478;29;19931;-55
2023/03/21 09:26:08;;;;;;;54.35;8.32;;;;;;;;;;4918408;29;20057;-54
2023/03/21 09:28:37;;;;;;;95.72;11.90;;;;;;;;;;4922266;29;20039;-55
2023/03/21 09:31:05;;;;;;;72.68;10.70;;;;;;;;;;4922025;29;20271;-53
2023/03/21 09:33:32;;;;;;;63.47;9.77;;;;;;;;;;4920673;29;20082;-55
2023/03/21 09:35:59;;;;;;;66.65;8.95;;;;;;;;;;4920062;29;20052;-54
2023/03/21 09:38:35;;;;;;;35.72;7.82;;;;;;;;;;4923850;29;20106;-53
2023/03/21 09:41:07;;;;;;;68.57;9.13;;;;;;;;;;4921946;29;20505;-53
2023/03/21 09:44:01;;;;;;;77.60;9.35;;;;;;;;;;4925174;29;20047;-53
2023/03/21 09:46:27;;;;;;;89.80;10.27;;;;;;;;;;4848002;29;20061;-51
2023/03/21 09:48:55;;;;;;;36.20;6.82;;;;;;;;;;4851055;29;20153;-55
2023/03/21 09:51:27;;;;;;;56.15;8.50;;;;;;;;;;4852470;29;20077;-53
2023/03/21 09:53:54;;;;;;;59.45;8.80;;;;;;;;;;4855257;29;20590;-54
2023/03/21 09:56:24;;;;;;;46.35;8.55;;;;;;;;;;4852345;29;20419;-51
2023/03/21 09:58:53;;;;;;;59.70;9.02;;;;;;;;;;4850397;29;20053;-56
2023/03/21 10:01:28;;;;;;;56.70;8.80;;;;;;;;;;4851930;29;20052;-55
2023/03/21 10:03:56;;;;;;;32.22;7.40;;;;;;;;;;4853868;29;20544;-54
2023/03/21 10:06:28;;;;;;;96.15;12.38;;;;;;;;;;4855381;29;20053;-56
2023/03/21 10:08:57;;;;;;;42.72;8.52;;;;;;;;;;4851742;29;20049;-56
2023/03/21 10:11:26;;;;;;;97.15;11.13;;;;;;;;;;4849495;29;20539;-66
2023/03/21 10:14:13;;;;;;;53.90;9.05;;;;;;;;;;4857294;29;20085;-66
2023/03/21 10:16:41;;;;;;;64.35;9.23;;;;;;;;;;4831418;29;20061;-66
2023/03/21 10:19:12;;;;;;;109.40;12.23;;;;;;;;;;4828642;29;20066;-66
2023/03/21 10:21:42;;;;;;;65.78;10.23;;;;;;;;;;4827508;29;20152;-66
2023/03/21 10:24:27;;;;;;;66.57;9.45;;;;;;;;;;4883758;29;20121;-66
2023/03/21 10:26:54;;;;;;;39.97;10.30;;;;;;;;;;4885942;29;20586;-67
2023/03/21 10:29:24;;;;;;;57.10;9.43;;;;;;;;;;4883656;29;20056;-66
2023/03/21 10:31:51;;;;;;;69.60;12.13;;;;;;;;;;4883884;29;20049;-67
2023/03/21 10:34:22;;;;;;;66.32;11.18;;;;;;;;;;4884566;29;20151;-67
2023/03/21 10:36:49;;;;;;;95.75;12.35;;;;;;;;;;4884697;29;20049;-67
2023/03/21 10:39:39;;;;;;;77.07;12.32;;;;;;;;;;4885510;29;20094;-68
2023/03/21 10:42:05;;;;;;;110.32;13.73;;;;;;;;;;4883206;29;20143;-68
2023/03/21 10:44:33;;;;;;;48.42;9.07;;;;;;;;;;4884772;29;20439;-68
2023/03/21 10:47:06;;;;;;;26.33;7.47;;;;;;;;;;4884748;29;20060;-67
2023/03/21 10:49:37;;;;;;;122.80;12.93;;;;;;;;;;4881036;29;20602;-67
2023/03/21 10:52:26;;;;;;;32.20;6.78;;;;;;;;;;4883161;29;20059;-68
2023/03/21 10:55:04;;;;;;;75.63;9.75;;;;;;;;;;4930530;29;20044;-67
2023/03/21 10:57:30;;;;;;;41.58;7.68;;;;;;;;;;4922313;29;20135;-68
2023/03/21 10:59:59;;;;;;;73.30;9.73;;;;;;;;;;4922554;29;20047;-68
2023/03/21 11:02:31;;;;;;;38.95;8.00;;;;;;;;;;4922890;29;20052;-68
2023/03/21 11:05:04;;;;;;;84.60;11.52;;;;;;;;;;4923898;29;20075;-68
2023/03/21 11:07:31;;;;;;;74.43;11.13;;;;;;;;;;4922147;29;20052;-68
2023/03/21 11:09:58;;;;;;;40.72;7.25;;;;;;;;;;4923773;29;20055;-68
2023/03/21 11:12:38;;;;;;;164.68;14.30;;;;;;;;;;4922812;29;20131;-56
2023/03/21 11:15:23;;;;;;;59.08;8.75;;;;;;;;;;4922449;29;20064;-53
2023/03/21 11:17:49;;;;;;;67.95;8.93;;;;;;;;;;4918487;29;20047;-55
2023/03/21 11:20:20;;;;;;;62.55;8.45;;;;;;;;;;4920909;29;20040;-51
2023/03/21 11:22:47;;;;;;;45.83;6.82;;;;;;;;;;4924138;29;20109;-54
2023/03/21 11:25:35;;;;;;;108.50;10.68;;;;;;;;;;4924015;29;20044;-52
2023/03/21 11:28:08;;;;;;;59.35;7.43;;;;;;;;;;4913365;29;20043;-55
2023/03/21 11:30:34;;;;;;;77.03;8.27;;;;;;;;;;4918929;29;20983;-54
2023/03/21 11:33:05;;;;;;;38.17;6.40;;;;;;;;;;4920720;29;20047;-55
2023/03/21 11:35:33;;;;;;;46.35;7.03;;;;;;;;;;4920432;29;20103;-53
2023/03/21 11:38:00;;;;;;;82.32;9.30;;;;;;;;;;4921150;29;20071;-55
2023/03/21 11:40:27;;;;;;;40.83;7.10;;;;;;;;;;4923589;29;20082;-53
2023/03/21 11:42:54;;;;;;;39.65;6.60;;;;;;;;;;4920500;29;20075;-55
2023/03/21 11:45:22;;;;;;;68.75;8.48;;;;;;;;;;4924749;29;20492;-56
2023/03/21 11:47:49;;;;;;;48.50;7.15;;;;;;;;;;4923922;29;20051;-56
2023/03/21 11:50:18;;;;;;;46.92;6.47;;;;;;;;;;4921126;29;20061;-56
2023/03/21 11:52:51;;;;;;;89.68;10.25;;;;;;;;;;4922586;29;20040;-53
2023/03/21 11:55:17;;;;;;;65.47;9.20;;;;;;;;;;4921775;29;21884;-55
2023/03/21 11:57:55;;;;;;;84.85;9.68;;;;;;;;;;4922651;29;20274;-54
2023/03/21 12:00:31;;;;;;;42.97;8.75;;;;;;;;;;4927417;29;20039;-51
2023/03/21 12:02:57;;;;;;;80.05;9.55;;;;;;;;;;4917098;29;20047;-56
2023/03/21 12:05:30;;;;;;;87.38;9.75;;;;;;;;;;4918588;29;20446;-54
2023/03/21 12:08:00;;;;;;;45.65;7.90;;;;;;;;;;4923760;29;20438;-54
2023/03/21 12:11:02;;;;;;;80.70;9.45;;;;;;;;;;4923661;29;20485;-55
2023/03/21 12:13:31;;;;;;;78.90;9.60;;;;;;;;;;4862532;29;20101;-55
2023/03/21 12:16:16;;;;;;;80.47;9.20;;;;;;;;;;4860840;29;20057;-56
2023/03/21 12:18:51;;;;;;;64.32;8.15;;;;;;;;;;4861175;29;20076;-55
2023/03/21 12:21:19;;;;;;;55.22;7.40;;;;;;;;;;4861594;29;20054;-69
2023/03/21 12:24:01;;;;;;;54.55;8.32;;;;;;;;;;4865536;29;20105;-68
2023/03/21 12:26:29;;;;;;;50.45;9.18;;;;;;;;;;4862507;29;20056;-68
2023/03/21 12:29:14;;;;;;;29.98;6.95;;;;;;;;;;4862863;29;20422;-68
2023/03/21 12:31:47;;;;;;;99.20;10.90;;;;;;;;;;4864217;29;20056;-67
2023/03/21 12:34:32;;;;;;;68.07;8.65;;;;;;;;;;4864664;29;20046;-68
2023/03/21 12:37:01;;;;;;;31.90;7.05;;;;;;;;;;4865106;29;20385;-68
2023/03/21 12:39:33;;;;;;;36.00;7.57;;;;;;;;;;4862839;29;20084;-68
2023/03/21 12:42:18;;;;;;;55.85;7.82;;;;;;;;;;4862315;29;20099;-68
2023/03/21 12:44:46;;;;;;;38.60;7.35;;;;;;;;;;4863384;29;20139;-68
2023/03/21 12:47:21;;;;;;;88.35;10.00;;;;;;;;;;4883924;29;20090;-68
2023/03/21 12:50:00;;;;;;;78.05;9.43;;;;;;;;;;4921838;29;20132;-68
2023/03/21 12:52:43;;;;;;;63.13;8.52;;;;;;;;;;4920120;29;20095;-68
2023/03/21 12:55:09;;;;;;;67.82;8.90;;;;;;;;;;4916889;29;20272;-68
2023/03/21 12:58:08;;;;;;;58.90;8.02;;;;;;;;;;4923679;29;20118;-68
2023/03/21 13:00:40;;;;;;;33.50;6.18;;;;;;;;;;4862013;29;20424;-69
2023/03/21 13:03:11;;;;;;;86.60;10.27;;;;;;;;;;4861270;29;20829;-68
2023/03/21 13:05:55;;;;;;;47.40;6.75;;;;;;;;;;4866202;29;20060;-68
2023/03/21 13:08:24;;;;;;;69.45;8.63;;;;;;;;;;4865642;29;20051;-68
2023/03/21 13:10:51;;;;;;;47.50;7.45;;;;;;;;;;4861016;29;20057;-68
2023/03/21 13:13:21;;;;;;;58.97;8.38;;;;;;;;;;4863499;29;20053;-67
2023/03/21 13:15:47;;;;;;;75.85;9.55;;;;;;;;;;4860989;29;20132;-68
2023/03/21 13:18:24;;;;;;;49.85;8.00;;;;;;;;;;4864760;29;20539;-68
2023/03/21 13:20:55;;;;;;;72.65;11.48;;;;;;;;;;4861277;29;20064;-68
2023/03/21 13:23:23;;;;;;;117.28;15.63;;;;;;;;;;4854038;29;20580;-55
2023/03/21 13:25:51;;;;;;;69.60;17.48;;;;;;;;;;4859738;29;20053;-54
2023/03/21 13:28:20;;;;;;;93.07;11.27;;;;;;;;;;4862367;29;20716;-54
2023/03/21 13:30:50;;;;;;;50.55;8.70;;;;;;;;;;4864518;29;20083;-54
2023/03/21 13:33:22;;;;;;;75.15;9.50;;;;;;;;;;4863271;29;20045;-52
2023/03/21 13:36:04;;;;;;;82.68;10.25;;;;;;;;;;4873334;29;20103;-55
2023/03/21 13:38:31;;;;;;;39.20;7.10;;;;;;;;;;4900215;29;20132;-55
2023/03/21 13:41:02;;;;;;;74.57;9.90;;;;;;;;;;4903335;29;20037;-54
2023/03/21 13:43:31;;;;;;;83.82;11.32;;;;;;;;;;4902234;29;20048;-54
2023/03/21 13:46:09;;;;;;;68.97;10.07;;;;;;;;;;4900435;29;20498;-55
2023/03/21 13:48:54;;;;;;;55.05;9.32;;;;;;;;;;4901360;29;20048;-55
2023/03/21 13:51:28;;;;;;;91.50;11.73;;;;;;;;;;4900688;29;20077;-56
2023/03/21 13:54:03;;;;;;;48.03;9.98;;;;;;;;;;4902579;29;20045;-55
2023/03/21 13:56:47;;;;;;;56.80;8.80;;;;;;;;;;4899862;29;20075;-55
2023/03/21 13:59:18;;;;;;;72.43;10.32;;;;;;;;;;4900921;29;20056;-54
2023/03/21 14:02:05;;;;;;;80.25;10.00;;;;;;;;;;4901671;29;20414;-55
2023/03/21 14:04:31;;;;;;;54.35;8.43;;;;;;;;;;4900901;29;20069;-54
2023/03/21 14:07:15;;;;;;;90.45;10.32;;;;;;;;;;4897985;29;20049;-55
2023/03/21 14:09:46;;;;;;;68.93;9.20;;;;;;;;;;4896928;29;20538;-55
2023/03/21 14:12:17;;;;;;;52.85;8.15;;;;;;;;;;4901170;29;20045;-55
2023/03/21 14:14:49;;;;;;;91.55;9.30;;;;;;;;;;4897020;29;20040;-56
2023/03/21 14:17:24;;;;;;;55.42;9.15;;;;;;;;;;4902071;29;20036;-56
2023/03/21 14:20:15;;;;;;;104.13;12.73;;;;;;;;;;4903478;29;20056;-53
2023/03/21 14:22:41;;;;;;;42.25;8.32;;;;;;;;;;4908060;29;20126;-55
2023/03/21 14:25:12;;;;;;;91.22;11.27;;;;;;;;;;4914745;29;20059;-68
2023/03/21 14:27:41;;;;;;;41.83;7.95;;;;;;;;;;4923746;29;20099;-68
2023/03/21 14:30:11;;;;;;;58.30;9.18;;;;;;;;;;4923844;29;20375;-68
2023/03/21 14:32:39;;;;;;;75.00;10.10;;;;;;;;;;4921054;29;20758;-68
2023/03/21 14:35:08;;;;;;;60.40;10.15;;;;;;;;;;4923085;29;20398;-68
2023/03/21 14:37:39;;;;;;;77.20;10.43;;;;;;;;;;4924331;29;20040;-68
2023/03/21 14:40:16;;;;;;;67.90;9.95;;;;;;;;;;4925734;29;20067;-68
2023/03/21 14:42:45;;;;;;;57.38;9.38;;;;;;;;;;4924256;29;20059;-68